sensor_id;sensor_type;location;lat;lon;timestamp;pressure;altitude;pressure_sealevel;temperature;humidity
73101;BME280;61288;53.446;-2.266;2022-09-24T00:01:07;101485.06;;;8.70;89.25
73101;BME280;61288;53.446;-2.266;2022-09-24T00:03:32;101488.41;;;8.75;89.15
73101;BME280;61288;53.446;-2.266;2022-09-24T00:06:01;101490.00;;;8.81;89.10
73101;BME280;61288;53.446;-2.266;2022-09-24T00:08:27;101492.47;;;8.86;89.41
73101;BME280;61288;53.446;-2.266;2022-09-24T00:10:53;101496.75;;;8.88;89.46
73101;BME280;61288;53.446;-2.266;2022-09-24T00:13:21;101496.69;;;8.91;89.91
73101;BME280;61288;53.446;-2.266;2022-09-24T00:15:50;101499.19;;;8.94;90.24
73101;BME280;61288;53.446;-2.266;2022-09-24T00:18:17;101498.25;;;8.99;90.31
73101;BME280;61288;53.446;-2.266;2022-09-24T00:20:43;101495.59;;;9.02;90.13
73101;BME280;61288;53.446;-2.266;2022-09-24T00:23:10;101494.66;;;9.06;90.00
73101;BME280;61288;53.446;-2.266;2022-09-24T00:25:43;101493.69;;;9.10;90.32
73101;BME280;61288;53.446;-2.266;2022-09-24T00:28:28;101503.16;;;9.11;89.55
73101;BME280;61288;53.446;-2.266;2022-09-24T00:30:54;101499.66;;;9.15;90.13
73101;BME280;61288;53.446;-2.266;2022-09-24T00:33:23;101496.13;;;9.18;89.89
73101;BME280;61288;53.446;-2.266;2022-09-24T00:35:48;101496.09;;;9.19;89.78
73101;BME280;61288;53.446;-2.266;2022-09-24T00:38:14;101485.72;;;9.21;89.42
73101;BME280;61288;53.446;-2.266;2022-09-24T00:40:40;101490.03;;;9.20;89.10
73101;BME280;61288;53.446;-2.266;2022-09-24T00:43:23;101485.69;;;9.22;89.44
73101;BME280;61288;53.446;-2.266;2022-09-24T00:45:56;101490.00;;;9.22;89.16
73101;BME280;61288;53.446;-2.266;2022-09-24T00:48:23;101494.28;;;9.23;89.04
73101;BME280;61288;53.446;-2.266;2022-09-24T00:50:49;101498.63;;;9.22;90.13
73101;BME280;61288;53.446;-2.266;2022-09-24T00:53:17;101502.94;;;9.22;89.54
73101;BME280;61288;53.446;-2.266;2022-09-24T00:55:49;101504.56;;;9.26;89.78
73101;BME280;61288;53.446;-2.266;2022-09-24T00:58:18;101502.81;;;9.28;90.00
73101;BME280;61288;53.446;-2.266;2022-09-24T01:00:43;101501.03;;;9.30;89.91
73101;BME280;61288;53.446;-2.266;2022-09-24T01:03:22;101500.19;;;9.30;89.96
73101;BME280;61288;53.446;-2.266;2022-09-24T01:05:48;101495.81;;;9.32;90.10
73101;BME280;61288;53.446;-2.266;2022-09-24T01:08:16;101490.56;;;9.35;90.09
73101;BME280;61288;53.446;-2.266;2022-09-24T01:14:24;101487.03;;;9.39;90.07
73101;BME280;61288;53.446;-2.266;2022-09-24T01:19:10;101485.31;;;9.39;89.35
73101;BME280;61288;53.446;-2.266;2022-09-24T01:21:46;101486.22;;;9.37;89.11
73101;BME280;61288;53.446;-2.266;2022-09-24T01:30:05;101485.38;;;9.36;89.27
73101;BME280;61288;53.446;-2.266;2022-09-24T01:35:35;101480.16;;;9.38;89.34
73101;BME280;61288;53.446;-2.266;2022-09-24T01:38:27;101474.97;;;9.38;90.07
73101;BME280;61288;53.446;-2.266;2022-09-24T01:40:56;101478.38;;;9.40;89.38
73101;BME280;61288;53.446;-2.266;2022-09-24T01:43:26;101477.56;;;9.38;89.83
73101;BME280;61288;53.446;-2.266;2022-09-24T01:45:56;101478.38;;;9.40;90.05
73101;BME280;61288;53.446;-2.266;2022-09-24T01:48:24;101474.06;;;9.41;90.21
73101;BME280;61288;53.446;-2.266;2022-09-24T01:51:06;101470.59;;;9.42;90.96
73101;BME280;61288;53.446;-2.266;2022-09-24T01:53:40;101479.97;;;9.46;91.16
73101;BME280;61288;53.446;-2.266;2022-09-24T01:56:19;101473.13;;;9.43;90.43
73101;BME280;61288;53.446;-2.266;2022-09-24T01:59:01;101475.72;;;9.43;89.93
73101;BME280;61288;53.446;-2.266;2022-09-24T02:01:32;101477.50;;;9.41;89.36
73101;BME280;61288;53.446;-2.266;2022-09-24T02:04:09;101477.53;;;9.39;89.47
73101;BME280;61288;53.446;-2.266;2022-09-24T02:06:49;101480.97;;;9.40;89.44
73101;BME280;61288;53.446;-2.266;2022-09-24T02:09:31;101480.16;;;9.38;89.57
73101;BME280;61288;53.446;-2.266;2022-09-24T02:12:02;101480.16;;;9.38;89.80
73101;BME280;61288;53.446;-2.266;2022-09-24T02:14:31;101481.03;;;9.37;89.64
73101;BME280;61288;53.446;-2.266;2022-09-24T02:17:01;101487.97;;;9.36;89.58
73101;BME280;61288;53.446;-2.266;2022-09-24T02:19:28;101478.50;;;9.35;89.30
73101;BME280;61288;53.446;-2.266;2022-09-24T02:21:57;101487.09;;;9.37;88.97
73101;BME280;61288;53.446;-2.266;2022-09-24T02:24:52;101479.28;;;9.39;89.08
73101;BME280;61288;53.446;-2.266;2022-09-24T02:27:18;101470.63;;;9.40;89.61
73101;BME280;61288;53.446;-2.266;2022-09-24T02:29:46;101477.53;;;9.39;89.40
73101;BME280;61288;53.446;-2.266;2022-09-24T02:32:14;101477.63;;;9.36;89.27
73101;BME280;61288;53.446;-2.266;2022-09-24T02:34:45;101481.94;;;9.36;89.24
73101;BME280;61288;53.446;-2.266;2022-09-24T02:37:13;101477.63;;;9.36;89.44
73101;BME280;61288;53.446;-2.266;2022-09-24T02:39:39;101479.34;;;9.36;89.20
73101;BME280;61288;53.446;-2.266;2022-09-24T02:42:07;101477.63;;;9.36;89.26
73101;BME280;61288;53.446;-2.266;2022-09-24T02:44:34;101487.03;;;9.39;89.54
73101;BME280;61288;53.446;-2.266;2022-09-24T02:47:03;101478.44;;;9.38;89.30
73101;BME280;61288;53.446;-2.266;2022-09-24T02:49:29;101483.63;;;9.37;89.21
73101;BME280;61288;53.446;-2.266;2022-09-24T02:51:55;101481.03;;;9.37;88.98
73101;BME280;61288;53.446;-2.266;2022-09-24T02:54:21;101482.81;;;9.35;89.42
73101;BME280;61288;53.446;-2.266;2022-09-24T02:56:49;101481.94;;;9.36;89.27
73101;BME280;61288;53.446;-2.266;2022-09-24T02:59:15;101480.28;;;9.33;89.08
73101;BME280;61288;53.446;-2.266;2022-09-24T03:01:41;101482.88;;;9.33;88.73
73101;BME280;61288;53.446;-2.266;2022-09-24T03:04:07;101479.47;;;9.31;88.70
73101;BME280;61288;53.446;-2.266;2022-09-24T03:06:33;101482.94;;;9.30;86.97
73101;BME280;61288;53.446;-2.266;2022-09-24T03:08:58;101482.97;;;9.29;86.96
73101;BME280;61288;53.446;-2.266;2022-09-24T03:11:25;101482.13;;;9.28;86.82
73101;BME280;61288;53.446;-2.266;2022-09-24T03:13:50;101483.88;;;9.26;86.32
73101;BME280;61288;53.446;-2.266;2022-09-24T03:16:17;101482.97;;;9.27;86.69
73101;BME280;61288;53.446;-2.266;2022-09-24T03:18:42;101479.53;;;9.28;86.78
73101;BME280;61288;53.446;-2.266;2022-09-24T03:21:11;101476.94;;;9.28;87.23
73101;BME280;61288;53.446;-2.266;2022-09-24T03:23:37;101481.28;;;9.26;87.00
73101;BME280;61288;53.446;-2.266;2022-09-24T03:26:03;101472.72;;;9.24;87.05
73101;BME280;61288;53.446;-2.266;2022-09-24T03:28:29;101482.22;;;9.23;86.44
73101;BME280;61288;53.446;-2.266;2022-09-24T03:30:55;101477.94;;;9.22;86.46
73101;BME280;61288;53.446;-2.266;2022-09-24T03:33:37;101484.94;;;9.17;85.80
73101;BME280;61288;53.446;-2.266;2022-09-24T03:38:36;101491.19;;;9.07;85.50
73101;BME280;61288;53.446;-2.266;2022-09-24T03:41:03;101495.59;;;9.03;84.35
73101;BME280;61288;53.446;-2.266;2022-09-24T03:43:29;101493.09;;;8.99;85.03
73101;BME280;61288;53.446;-2.266;2022-09-24T03:45:56;101499.19;;;8.96;84.77
73101;BME280;61288;53.446;-2.266;2022-09-24T03:48:23;101496.63;;;8.94;85.42
73101;BME280;61288;53.446;-2.266;2022-09-24T03:50:52;101495.81;;;8.92;85.08
73101;BME280;61288;53.446;-2.266;2022-09-24T03:53:18;101496.78;;;8.87;85.42
73101;BME280;61288;53.446;-2.266;2022-09-24T03:55:46;101499.50;;;8.80;85.26
73101;BME280;61288;53.446;-2.266;2022-09-24T03:58:16;101499.63;;;8.74;85.59
73101;BME280;61288;53.446;-2.266;2022-09-24T04:00:41;101495.41;;;8.69;86.40
73101;BME280;61288;53.446;-2.266;2022-09-24T04:03:07;101504.97;;;8.65;85.86
73101;BME280;61288;53.446;-2.266;2022-09-24T04:05:34;101511.91;;;8.61;85.91
73101;BME280;61288;53.446;-2.266;2022-09-24T04:08:03;101512.88;;;8.56;85.33
73101;BME280;61288;53.446;-2.266;2022-09-24T04:10:30;101505.22;;;8.51;85.47
73101;BME280;61288;53.446;-2.266;2022-09-24T04:12:56;101510.44;;;8.46;85.09
73101;BME280;61288;53.446;-2.266;2022-09-24T04:15:22;101507.09;;;8.41;85.41
73101;BME280;61288;53.446;-2.266;2022-09-24T04:17:52;101503.75;;;8.36;86.09
73101;BME280;61288;53.446;-2.266;2022-09-24T04:20:19;101508.03;;;8.37;86.51
73101;BME280;61288;53.446;-2.266;2022-09-24T04:22:51;101512.34;;;8.36;87.33
73101;BME280;61288;53.446;-2.266;2022-09-24T04:25:18;101517.69;;;8.26;86.23
73101;BME280;61288;53.446;-2.266;2022-09-24T04:27:45;101516.09;;;8.20;86.35
73101;BME280;61288;53.446;-2.266;2022-09-24T04:32:50;101511.91;;;8.13;86.94
73101;BME280;61288;53.446;-2.266;2022-09-24T04:35:18;101510.25;;;8.08;86.98
73101;BME280;61288;53.446;-2.266;2022-09-24T04:37:44;101514.63;;;8.03;87.00
73101;BME280;61288;53.446;-2.266;2022-09-24T04:40:11;101507.03;;;7.95;85.85
73101;BME280;61288;53.446;-2.266;2022-09-24T04:42:38;101511.44;;;7.89;85.87
73101;BME280;61288;53.446;-2.266;2022-09-24T04:45:08;101512.41;;;7.82;85.45
73101;BME280;61288;53.446;-2.266;2022-09-24T04:47:34;101511.66;;;7.73;85.90
73101;BME280;61288;53.446;-2.266;2022-09-24T04:50:00;101513.53;;;7.65;86.40
73101;BME280;61288;53.446;-2.266;2022-09-24T04:52:28;101512.69;;;7.63;86.33
73101;BME280;61288;53.446;-2.266;2022-09-24T04:54:57;101507.69;;;7.54;86.05
73101;BME280;61288;53.446;-2.266;2022-09-24T04:57:24;101511.28;;;7.42;86.14
73101;BME280;61288;53.446;-2.266;2022-09-24T04:59:50;101515.72;;;7.33;86.40
73101;BME280;61288;53.446;-2.266;2022-09-24T05:02:16;101517.44;;;7.31;86.87
73101;BME280;61288;53.446;-2.266;2022-09-24T05:04:42;101515.72;;;7.33;87.32
73101;BME280;61288;53.446;-2.266;2022-09-24T05:07:08;101528.59;;;7.32;87.15
73101;BME280;61288;53.446;-2.266;2022-09-24T05:09:34;101538.97;;;7.27;88.48
73101;BME280;61288;53.446;-2.266;2022-09-24T05:12:01;101536.38;;;7.29;88.48
73101;BME280;61288;53.446;-2.266;2022-09-24T05:14:26;101538.94;;;7.30;88.79
73101;BME280;61288;53.446;-2.266;2022-09-24T05:16:52;101540.66;;;7.30;89.38
73101;BME280;61288;53.446;-2.266;2022-09-24T05:19:18;101530.50;;;7.19;87.96
73101;BME280;61288;53.446;-2.266;2022-09-24T05:21:44;101545.22;;;7.11;87.48
73101;BME280;61288;53.446;-2.266;2022-09-24T05:24:11;101540.16;;;7.01;87.91
73101;BME280;61288;53.446;-2.266;2022-09-24T05:26:36;101541.06;;;6.99;87.72
73101;BME280;61288;53.446;-2.266;2022-09-24T05:29:20;101533.41;;;6.91;87.66
73101;BME280;61288;53.446;-2.266;2022-09-24T05:31:46;101545.44;;;6.89;88.53
73101;BME280;61288;53.446;-2.266;2022-09-24T05:34:11;101537.75;;;6.87;89.56
73101;BME280;61288;53.446;-2.266;2022-09-24T05:36:39;101542.91;;;6.86;89.60
73101;BME280;61288;53.446;-2.266;2022-09-24T05:39:05;101554.09;;;6.85;89.85
73101;BME280;61288;53.446;-2.266;2022-09-24T05:41:32;101559.28;;;6.83;89.95
73101;BME280;61288;53.446;-2.266;2022-09-24T05:43:57;101551.63;;;6.74;89.51
73101;BME280;61288;53.446;-2.266;2022-09-24T05:46:24;101560.22;;;6.73;90.48
73101;BME280;61288;53.446;-2.266;2022-09-24T05:48:49;101563.66;;;6.73;89.54
73101;BME280;61288;53.446;-2.266;2022-09-24T05:51:15;101569.75;;;6.64;88.23
73101;BME280;61288;53.446;-2.266;2022-09-24T05:53:40;101571.56;;;6.55;88.60
73101;BME280;61288;53.446;-2.266;2022-09-24T05:56:06;101575.06;;;6.49;88.42
73101;BME280;61288;53.446;-2.266;2022-09-24T05:58:31;101570.72;;;6.54;90.64
73101;BME280;61288;53.446;-2.266;2022-09-24T06:00:58;101569.84;;;6.54;89.26
73101;BME280;61288;53.446;-2.266;2022-09-24T06:03:25;101574.22;;;6.48;89.09
73101;BME280;61288;53.446;-2.266;2022-09-24T06:05:51;101580.19;;;6.52;89.84
73101;BME280;61288;53.446;-2.266;2022-09-24T06:08:18;101578.41;;;6.56;90.55
73101;BME280;61288;53.446;-2.266;2022-09-24T06:10:44;101574.97;;;6.57;90.01
73101;BME280;61288;53.446;-2.266;2022-09-24T06:13:12;101575.84;;;6.56;89.85
73101;BME280;61288;53.446;-2.266;2022-09-24T06:15:39;101581.06;;;6.51;89.34
73101;BME280;61288;53.446;-2.266;2022-09-24T06:18:07;101578.50;;;6.45;88.91
73101;BME280;61288;53.446;-2.266;2022-09-24T06:20:33;101579.38;;;6.45;89.48
73101;BME280;61288;53.446;-2.266;2022-09-24T06:22:59;101579.38;;;6.44;89.54
73101;BME280;61288;53.446;-2.266;2022-09-24T06:25:26;101583.75;;;6.37;89.41
73101;BME280;61288;53.446;-2.266;2022-09-24T06:28:01;101582.88;;;6.38;90.69
73101;BME280;61288;53.446;-2.266;2022-09-24T06:30:35;101580.34;;;6.33;89.15
73101;BME280;61288;53.446;-2.266;2022-09-24T06:33:05;101582.94;;;6.29;89.15
73101;BME280;61288;53.446;-2.266;2022-09-24T06:35:36;101586.38;;;6.29;88.99
73101;BME280;61288;53.446;-2.266;2022-09-24T06:38:03;101594.97;;;6.28;88.86
73101;BME280;61288;53.446;-2.266;2022-09-24T06:40:29;101597.59;;;6.22;88.73
73101;BME280;61288;53.446;-2.266;2022-09-24T06:42:55;101600.16;;;6.25;89.64
73101;BME280;61288;53.446;-2.266;2022-09-24T06:45:21;101603.53;;;6.30;90.79
73101;BME280;61288;53.446;-2.266;2022-09-24T06:48:12;101593.25;;;6.30;90.00
73101;BME280;61288;53.446;-2.266;2022-09-24T06:50:41;101602.69;;;6.30;89.55
73101;BME280;61288;53.446;-2.266;2022-09-24T06:53:08;101610.38;;;6.36;91.20
73101;BME280;61288;53.446;-2.266;2022-09-24T06:55:35;101612.00;;;6.42;91.15
73101;BME280;61288;53.446;-2.266;2022-09-24T06:58:05;101615.44;;;6.45;90.99
73101;BME280;61288;53.446;-2.266;2022-09-24T07:00:31;101606.84;;;6.46;91.41
73101;BME280;61288;53.446;-2.266;2022-09-24T07:02:57;101617.06;;;6.54;91.59
73101;BME280;61288;53.446;-2.266;2022-09-24T07:05:23;101619.56;;;6.62;92.14
73101;BME280;61288;53.446;-2.266;2022-09-24T07:07:48;101620.44;;;6.61;91.55
73101;BME280;61288;53.446;-2.266;2022-09-24T07:10:14;101624.72;;;6.63;91.81
73101;BME280;61288;53.446;-2.266;2022-09-24T07:12:41;101632.41;;;6.67;92.32
73101;BME280;61288;53.446;-2.266;2022-09-24T07:15:08;101623.81;;;6.68;92.56
73101;BME280;61288;53.446;-2.266;2022-09-24T07:17:34;101627.19;;;6.73;93.02
73101;BME280;61288;53.446;-2.266;2022-09-24T07:20:00;101632.31;;;6.77;92.69
73101;BME280;61288;53.446;-2.266;2022-09-24T07:22:26;101628.84;;;6.83;92.87
73101;BME280;61288;53.446;-2.266;2022-09-24T07:24:51;101639.91;;;6.91;92.97
73101;BME280;61288;53.446;-2.266;2022-09-24T07:27:17;101638.09;;;7.00;93.46
73101;BME280;61288;53.446;-2.266;2022-09-24T07:29:47;101646.59;;;7.08;93.64
73101;BME280;61288;53.446;-2.266;2022-09-24T07:32:15;101639.66;;;7.15;93.02
73101;BME280;61288;53.446;-2.266;2022-09-24T07:34:42;101637.88;;;7.20;92.80
73101;BME280;61288;53.446;-2.266;2022-09-24T07:37:08;101638.63;;;7.28;93.00
73101;BME280;61288;53.446;-2.266;2022-09-24T07:39:33;101648.03;;;7.35;92.81
73101;BME280;61288;53.446;-2.266;2022-09-24T07:41:59;101653.06;;;7.43;92.77
73101;BME280;61288;53.446;-2.266;2022-09-24T07:44:27;101644.47;;;7.44;93.26
73101;BME280;61288;53.446;-2.266;2022-09-24T07:46:54;101643.59;;;7.48;93.29
73101;BME280;61288;53.446;-2.266;2022-09-24T07:49:20;101646.94;;;7.54;93.19
73101;BME280;61288;53.446;-2.266;2022-09-24T07:51:46;101650.28;;;7.63;93.15
73101;BME280;61288;53.446;-2.266;2022-09-24T07:54:12;101647.56;;;7.71;92.27
73101;BME280;61288;53.446;-2.266;2022-09-24T07:56:38;101648.31;;;7.81;92.26
73101;BME280;61288;53.446;-2.266;2022-09-24T07:59:04;101644.75;;;7.90;91.91
73101;BME280;61288;53.446;-2.266;2022-09-24T08:01:35;101638.63;;;7.97;91.32
73101;BME280;61288;53.446;-2.266;2022-09-24T08:04:02;101644.50;;;8.07;91.11
73101;BME280;61288;53.446;-2.266;2022-09-24T08:06:34;101648.69;;;8.14;91.08
73101;BME280;61288;53.446;-2.266;2022-09-24T08:09:00;101647.81;;;8.17;91.38
73101;BME280;61288;53.446;-2.266;2022-09-24T08:11:26;101656.28;;;8.23;91.37
73101;BME280;61288;53.446;-2.266;2022-09-24T08:13:55;101649.31;;;8.32;90.73
73101;BME280;61288;53.446;-2.266;2022-09-24T08:16:20;101655.09;;;8.46;90.37
73101;BME280;61288;53.446;-2.266;2022-09-24T08:18:46;101662.66;;;8.59;90.02
73101;BME280;61288;53.446;-2.266;2022-09-24T08:21:12;101665.00;;;8.73;89.99
73101;BME280;61288;53.446;-2.266;2022-09-24T08:23:40;101663.03;;;8.87;88.78
73101;BME280;61288;53.446;-2.266;2022-09-24T08:26:06;101664.56;;;8.98;88.90
73101;BME280;61288;53.446;-2.266;2022-09-24T08:28:32;101673.06;;;9.04;88.41
73101;BME280;61288;53.446;-2.266;2022-09-24T08:30:59;101672.91;;;9.14;87.13
73101;BME280;61288;53.446;-2.266;2022-09-24T08:33:26;101669.25;;;9.24;86.47
73101;BME280;61288;53.446;-2.266;2022-09-24T08:35:53;101670.00;;;9.31;87.17
73101;BME280;61288;53.446;-2.266;2022-09-24T08:38:18;101671.50;;;9.41;86.28
73101;BME280;61288;53.446;-2.266;2022-09-24T08:40:55;101666.91;;;9.56;85.97
73101;BME280;61288;53.446;-2.266;2022-09-24T08:43:34;101667.44;;;9.72;85.62
73101;BME280;61288;53.446;-2.266;2022-09-24T08:46:20;101662.00;;;9.84;85.02
73101;BME280;61288;53.446;-2.266;2022-09-24T08:49:09;101669.53;;;9.95;84.51
73101;BME280;61288;53.446;-2.266;2022-09-24T08:54:51;101676.44;;;10.32;80.72
73101;BME280;61288;53.446;-2.266;2022-09-24T08:57:21;101684.72;;;10.48;81.24
73101;BME280;61288;53.446;-2.266;2022-09-24T08:59:50;101677.34;;;10.67;81.04
73101;BME280;61288;53.446;-2.266;2022-09-24T09:06:00;101692.38;;;10.89;77.94
73101;BME280;61288;53.446;-2.266;2022-09-24T09:11:02;101705.31;;;11.22;76.51
73101;BME280;61288;53.446;-2.266;2022-09-24T09:13:35;101709.03;;;11.45;76.56
73101;BME280;61288;53.446;-2.266;2022-09-24T09:16:26;101703.63;;;11.53;75.58
73101;BME280;61288;53.446;-2.266;2022-09-24T09:19:04;101713.47;;;11.72;74.55
73101;BME280;61288;53.446;-2.266;2022-09-24T09:21:41;101714.91;;;11.82;72.67
73101;BME280;61288;53.446;-2.266;2022-09-24T09:24:21;101714.47;;;11.97;72.57
73101;BME280;61288;53.446;-2.266;2022-09-24T09:26:51;101715.22;;;12.01;71.60
73101;BME280;61288;53.446;-2.266;2022-09-24T09:29:19;101723.88;;;12.00;71.28
73101;BME280;61288;53.446;-2.266;2022-09-24T09:37:54;101723.88;;;12.30;70.84
73101;BME280;61288;53.446;-2.266;2022-09-24T09:40:42;101711.88;;;12.26;71.82
73101;BME280;61288;53.446;-2.266;2022-09-24T09:43:11;101713.91;;;12.16;70.53
73101;BME280;61288;53.446;-2.266;2022-09-24T09:48:29;101725.66;;;11.99;73.04
73101;BME280;61288;53.446;-2.266;2022-09-24T09:51:01;101722.19;;;11.99;73.42
73101;BME280;61288;53.446;-2.266;2022-09-24T09:53:30;101720.50;;;11.98;73.92
73101;BME280;61288;53.446;-2.266;2022-09-24T09:55:57;101718.78;;;11.97;74.66
73101;BME280;61288;53.446;-2.266;2022-09-24T09:58:28;101721.38;;;11.97;74.43
73101;BME280;61288;53.446;-2.266;2022-09-24T10:03:32;101718.50;;;12.08;73.90
73101;BME280;61288;53.446;-2.266;2022-09-24T10:06:04;101716.78;;;12.35;72.99
73101;BME280;61288;53.446;-2.266;2022-09-24T10:08:30;101707.16;;;12.66;71.07
73101;BME280;61288;53.446;-2.266;2022-09-24T10:10:58;101717.22;;;12.77;70.53
73101;BME280;61288;53.446;-2.266;2022-09-24T10:13:25;101712.00;;;12.77;69.57
73101;BME280;61288;53.446;-2.266;2022-09-24T10:15:59;101711.00;;;13.06;70.36
73101;BME280;61288;53.446;-2.266;2022-09-24T10:18:36;101715.91;;;13.39;70.61
73101;BME280;61288;53.446;-2.266;2022-09-24T10:21:08;101718.09;;;13.52;68.48
73101;BME280;61288;53.446;-2.266;2022-09-24T10:23:41;101719.28;;;13.67;69.25
73101;BME280;61288;53.446;-2.266;2022-09-24T10:26:08;101715.75;;;13.68;69.32
73101;BME280;61288;53.446;-2.266;2022-09-24T10:28:39;101719.84;;;13.75;70.48
73101;BME280;61288;53.446;-2.266;2022-09-24T10:31:28;101718.25;;;13.71;70.09
73101;BME280;61288;53.446;-2.266;2022-09-24T10:33:56;101721.75;;;13.70;70.16
73101;BME280;61288;53.446;-2.266;2022-09-24T10:36:26;101719.91;;;13.50;68.35
73101;BME280;61288;53.446;-2.266;2022-09-24T10:41:32;101722.63;;;13.47;70.20
73101;BME280;61288;53.446;-2.266;2022-09-24T10:44:02;101724.75;;;13.83;68.70
73101;BME280;61288;53.446;-2.266;2022-09-24T10:56:58;101729.56;;;14.83;66.57
73101;BME280;61288;53.446;-2.266;2022-09-24T11:04:55;101728.56;;;15.27;63.85
73101;BME280;61288;53.446;-2.266;2022-09-24T11:12:42;101728.47;;;15.28;63.41
73101;BME280;61288;53.446;-2.266;2022-09-24T11:20:49;101732.00;;;15.86;62.09
73101;BME280;61288;53.446;-2.266;2022-09-24T11:23:25;101737.28;;;16.04;61.92
73101;BME280;61288;53.446;-2.266;2022-09-24T11:26:44;101730.03;;;15.92;61.35
73101;BME280;61288;53.446;-2.266;2022-09-24T11:40:01;101744.13;;;14.22;62.51
73101;BME280;61288;53.446;-2.266;2022-09-24T11:45:42;101742.34;;;14.00;64.01
73101;BME280;61288;53.446;-2.266;2022-09-24T11:56:23;101744.41;;;13.92;63.07
73101;BME280;61288;53.446;-2.266;2022-09-24T11:58:54;101744.00;;;14.03;62.54
73101;BME280;61288;53.446;-2.266;2022-09-24T12:01:29;101740.63;;;14.23;61.74
73101;BME280;61288;53.446;-2.266;2022-09-24T12:04:07;101744.13;;;14.44;62.13
73101;BME280;61288;53.446;-2.266;2022-09-24T12:06:37;101738.66;;;14.50;61.36
73101;BME280;61288;53.446;-2.266;2022-09-24T12:09:20;101732.22;;;14.59;59.34
73101;BME280;61288;53.446;-2.266;2022-09-24T12:11:54;101749.19;;;14.69;60.07
73101;BME280;61288;53.446;-2.266;2022-09-24T12:14:35;101743.13;;;14.91;58.14
73101;BME280;61288;53.446;-2.266;2022-09-24T12:17:08;101743.31;;;15.07;57.48
73101;BME280;61288;53.446;-2.266;2022-09-24T12:19:48;101748.59;;;15.26;57.74
73101;BME280;61288;53.446;-2.266;2022-09-24T12:22:16;101754.66;;;15.27;57.48
73101;BME280;61288;53.446;-2.266;2022-09-24T12:24:53;101745.69;;;15.33;57.49
73101;BME280;61288;53.446;-2.266;2022-09-24T12:27:41;101750.00;;;15.34;57.02
73101;BME280;61288;53.446;-2.266;2022-09-24T12:35:48;101745.06;;;15.07;57.51
73101;BME280;61288;53.446;-2.266;2022-09-24T12:41:31;101756.19;;;15.12;57.58
73101;BME280;61288;53.446;-2.266;2022-09-24T12:46:46;101749.97;;;15.35;57.73
73101;BME280;61288;53.446;-2.266;2022-09-24T12:49:35;101750.72;;;15.37;56.74
73101;BME280;61288;53.446;-2.266;2022-09-24T12:52:25;101755.19;;;15.35;56.28
73101;BME280;61288;53.446;-2.266;2022-09-24T12:54:57;101759.22;;;15.22;55.25
73101;BME280;61288;53.446;-2.266;2022-09-24T12:57:37;101762.31;;;15.11;55.96
73101;BME280;61288;53.446;-2.266;2022-09-24T13:02:57;101746.97;;;15.03;57.25
73101;BME280;61288;53.446;-2.266;2022-09-24T13:08:01;101755.81;;;14.78;57.17
73101;BME280;61288;53.446;-2.266;2022-09-24T13:10:31;101755.44;;;14.65;56.10
73101;BME280;61288;53.446;-2.266;2022-09-24T13:12:58;101763.69;;;14.54;55.86
73101;BME280;61288;53.446;-2.266;2022-09-24T13:15:37;101762.91;;;14.52;56.30
73101;BME280;61288;53.446;-2.266;2022-09-24T13:20:40;101756.75;;;14.33;54.37
73101;BME280;61288;53.446;-2.266;2022-09-24T13:25:58;101760.56;;;14.24;56.14
73101;BME280;61288;53.446;-2.266;2022-09-24T13:28:29;101755.41;;;14.22;57.05
73101;BME280;61288;53.446;-2.266;2022-09-24T13:31:52;101751.06;;;14.23;56.69
73101;BME280;61288;53.446;-2.266;2022-09-24T13:37:01;101749.28;;;14.23;56.25
73101;BME280;61288;53.446;-2.266;2022-09-24T13:39:58;101751.72;;;14.28;57.05
73101;BME280;61288;53.446;-2.266;2022-09-24T13:45:16;101753.25;;;14.34;57.82
73101;BME280;61288;53.446;-2.266;2022-09-24T13:47:53;101756.44;;;14.40;57.19
73101;BME280;61288;53.446;-2.266;2022-09-24T13:50:31;101759.78;;;14.44;57.53
73101;BME280;61288;53.446;-2.266;2022-09-24T13:53:03;101762.56;;;14.39;57.39
73101;BME280;61288;53.446;-2.266;2022-09-24T13:55:44;101760.97;;;14.35;57.70
73101;BME280;61288;53.446;-2.266;2022-09-24T13:58:29;101760.31;;;14.30;58.09
73101;BME280;61288;53.446;-2.266;2022-09-24T14:01:43;101759.50;;;14.29;57.21
73101;BME280;61288;53.446;-2.266;2022-09-24T14:04:36;101766.28;;;14.34;57.45
73101;BME280;61288;53.446;-2.266;2022-09-24T14:06:48;101766.19;;;14.35;55.86
73101;BME280;61288;53.446;-2.266;2022-09-24T14:09:33;101759.50;;;14.29;56.29
73101;BME280;61288;53.446;-2.266;2022-09-24T14:12:11;101761.97;;;14.33;56.31
73101;BME280;61288;53.446;-2.266;2022-09-24T14:14:43;101755.78;;;14.35;56.44
73101;BME280;61288;53.446;-2.266;2022-09-24T14:17:14;101766.81;;;14.42;57.24
73101;BME280;61288;53.446;-2.266;2022-09-24T14:19:40;101764.50;;;14.34;55.27
73101;BME280;61288;53.446;-2.266;2022-09-24T14:22:16;101773.34;;;14.30;55.10
73101;BME280;61288;53.446;-2.266;2022-09-24T14:24:54;101773.56;;;14.25;54.53
73101;BME280;61288;53.446;-2.266;2022-09-24T14:27:24;101770.75;;;14.30;55.81
73101;BME280;61288;53.446;-2.266;2022-09-24T14:30:03;101772.41;;;14.33;55.50
73101;BME280;61288;53.446;-2.266;2022-09-24T14:32:35;101781.84;;;14.35;55.75
73101;BME280;61288;53.446;-2.266;2022-09-24T14:37:36;101773.59;;;14.46;57.61
73101;BME280;61288;53.446;-2.266;2022-09-24T14:40:10;101777.00;;;14.48;57.33
73101;BME280;61288;53.446;-2.266;2022-09-24T14:42:40;101781.13;;;14.54;57.44
73101;BME280;61288;53.446;-2.266;2022-09-24T14:45:09;101782.03;;;14.53;56.81
73101;BME280;61288;53.446;-2.266;2022-09-24T14:47:41;101780.47;;;14.49;56.20
73101;BME280;61288;53.446;-2.266;2022-09-24T14:50:43;101790.22;;;14.43;55.80
73101;BME280;61288;53.446;-2.266;2022-09-24T14:53:23;101788.41;;;14.46;55.70
73101;BME280;61288;53.446;-2.266;2022-09-24T14:55:50;101789.53;;;14.38;55.20
73101;BME280;61288;53.446;-2.266;2022-09-24T15:01:01;101791.47;;;14.33;54.33
73101;BME280;61288;53.446;-2.266;2022-09-24T15:03:42;101790.69;;;14.31;53.82
73101;BME280;61288;53.446;-2.266;2022-09-24T15:11:40;101798.06;;;14.43;55.80
73101;BME280;61288;53.446;-2.266;2022-09-24T15:16:44;101796.41;;;14.41;56.08